Clovis ASC

2021-10-22 04:30:00

  • imperial
Date Time Air Temperature Relative Humidity Dewpoint Windchill Heat Index Wind Speed Wind Dir. Rain Solar Radiation Soil Temperature Soil Temperature
2m 2m 3m 3m 5cm 10cm
US/Mountain F % F F F MPH deg in MJ/m^2 F F
max avg avg
2021-10-21 04:45:00 48.1 62.7 36.0 46.6 48.1 4.0 5.6 4.9 122.3 128.3 0.00 0.0000000 54.1 58.5
2021-10-21 04:50:00 47.0 63.7 35.4 46.0 47.0 3.3 4.2 3.3 115.7 117.0 0.00 0.0000000 54.1 58.4
2021-10-21 04:55:00 45.6 63.4 33.9 44.2 45.6 3.5 3.7 3.2 80.1 94.7 0.00 0.0000000 54.0 58.4
2021-10-21 05:00:00 44.5 64.4 33.3 44.5 44.5 3.0 4.0 3.2 114.8 101.0 0.00 0.0000000 54.0 58.4
2021-10-21 05:05:00 44.2 69.6 34.9 42.0 44.2 4.2 4.2 3.4 147.5 127.6 0.00 0.0000000 54.0 58.3
2021-10-21 05:10:00 45.7 70.1 36.5 43.6 45.7 4.4 5.5 4.5 140.1 137.7 0.00 0.0000000 53.9 58.3
2021-10-21 05:15:00 46.9 69.5 37.5 45.1 46.9 4.2 5.6 4.9 138.5 140.4 0.00 0.0000000 53.9 58.3
2021-10-21 05:20:00 48.0 69.2 38.4 45.5 48.0 5.5 6.3 5.1 139.3 144.6 0.00 0.0000000 53.8 58.2
2021-10-21 05:25:00 48.3 69.8 38.9 45.6 48.3 6.2 7.6 5.8 118.1 141.8 0.00 0.0000000 53.7 58.2
2021-10-21 05:30:00 48.9 69.8 39.5 46.2 48.9 6.2 7.8 6.1 147.8 143.3 0.00 0.0000000 53.7 58.1
2021-10-21 05:35:00 48.8 70.8 39.7 46.5 48.8 5.5 7.4 6.0 154.4 150.7 0.00 0.0000000 53.7 58.1
2021-10-21 05:40:00 48.0 71.5 39.2 46.1 48.0 4.6 6.9 5.6 147.8 155.2 0.00 0.0000000 53.6 58.1
2021-10-21 05:45:00 46.9 73.2 38.8 44.5 46.9 5.1 6.3 5.5 165.5 156.3 0.00 0.0000000 53.6 58.0
2021-10-21 05:50:00 46.2 74.9 38.7 45.2 46.2 3.1 5.1 3.6 146.1 155.5 0.00 0.0000000 53.6 58.0
2021-10-21 05:55:00 45.5 76.7 38.6 45.5 45.5 2.6 4.0 3.2 154.6 154.5 0.00 0.0000000 53.6 58.0
2021-10-21 06:00:00 45.3 76.8 38.5 45.3 45.3 2.2 3.5 2.7 155.9 165.0 0.00 0.0000000 53.5 57.9
2021-10-21 06:05:00 45.1 76.7 38.2 45.1 45.1 1.5 3.5 2.6 166.1 167.9 0.00 0.0000000 53.5 57.9
2021-10-21 06:10:00 44.9 76.3 37.9 44.9 44.9 0.0 2.2 0.8 176.6 183.7 0.00 0.0000000 53.4 57.8
2021-10-21 06:15:00 44.4 76.5 37.4 44.4 44.4 0.0 0.0 0.0 160.0 182.8 0.00 0.0000000 53.4 57.8
2021-10-21 06:20:00 44.1 77.7 37.6 44.1 44.1 0.0 0.0 0.0 177.9 174.7 0.00 0.0000000 53.3 57.8
2021-10-21 06:25:00 43.9 78.0 37.5 43.9 43.9 0.0 0.0 0.0 196.9 184.5 0.00 0.0000000 53.3 57.7
2021-10-21 06:30:00 43.9 79.1 37.8 43.9 43.9 0.0 0.0 0.0 227.4 219.3 0.00 0.0000000 53.2 57.7
2021-10-21 06:35:00 43.2 78.7 37.0 43.2 43.2 0.8 0.8 0.0 198.8 213.8 0.00 0.0000000 53.1 57.7
2021-10-21 06:40:00 43.1 81.7 37.9 41.8 43.1 3.1 3.1 2.6 164.7 178.0 0.00 0.0000000 53.0 57.6
2021-10-21 06:45:00 43.6 80.2 37.9 42.1 43.6 3.3 3.7 3.2 175.3 160.3 0.00 0.0000000 52.9 57.6
2021-10-21 06:50:00 43.7 80.0 37.9 43.7 43.7 3.0 3.3 3.0 163.5 161.2 0.00 0.0000000 52.8 57.5
2021-10-21 06:55:00 43.8 79.5 37.9 43.8 43.8 2.8 3.1 2.8 168.5 160.6 0.00 0.0000000 52.8 57.5
2021-10-21 07:00:00 43.6 79.8 37.8 42.3 43.6 3.1 3.5 2.9 159.3 165.2 0.00 0.0001459 52.7 57.4
2021-10-21 07:05:00 43.8 79.8 37.9 42.5 43.8 3.1 3.8 3.0 157.4 161.0 0.00 0.0008541 52.6 57.4
2021-10-21 07:10:00 43.9 79.4 38.0 42.0 43.9 3.8 3.8 3.2 157.2 153.7 0.00 0.0030845 52.5 57.3
2021-10-21 07:15:00 44.4 78.7 38.2 42.2 44.4 4.2 4.2 3.7 146.2 149.5 0.00 0.0078618 52.4 57.3
2021-10-21 07:20:00 44.9 76.9 38.1 44.9 44.9 0.0 4.2 2.6 186.1 164.6 0.00 0.0128480 52.4 57.2
2021-10-21 07:25:00 45.4 75.0 37.9 45.4 45.4 0.0 0.0 0.0 236.9 205.1 0.00 0.0175358 52.3 57.2
2021-10-21 07:30:00 45.5 73.5 37.6 45.5 45.5 0.0 0.0 0.0 201.2 205.0 0.00 0.0220888 52.3 57.1
2021-10-21 07:35:00 45.6 73.9 37.7 45.6 45.6 0.0 0.0 0.0 207.4 200.7 0.00 0.0267005 52.3 57.1
2021-10-21 07:40:00 46.3 73.2 38.2 46.3 46.3 0.0 0.0 0.0 178.6 188.9 0.00 0.0310410 52.3 57.0
2021-10-21 07:45:00 47.4 70.9 38.5 47.4 47.4 0.0 0.0 0.0 169.8 172.2 0.00 0.0355171 52.2 57.0
2021-10-21 07:50:00 48.6 68.9 38.8 48.6 48.6 2.4 2.4 0.3 147.8 155.1 0.00 0.0399420 52.3 56.9
2021-10-21 07:55:00 48.5 70.5 39.3 48.5 48.5 2.8 3.5 2.8 151.3 151.8 0.00 0.0444915 52.3 56.9
2021-10-21 08:00:00 48.3 71.4 39.5 46.8 48.3 4.0 4.7 4.0 155.8 152.8 0.00 0.0491788 52.3 56.9
2021-10-21 08:05:00 48.5 70.5 39.4 47.3 48.5 3.8 5.3 3.9 169.2 158.0 0.00 0.0540336 52.4 56.8
2021-10-21 08:10:00 49.1 69.6 39.5 47.5 49.1 4.4 6.3 4.6 186.1 160.3 0.00 0.0587370 52.5 56.8
2021-10-21 08:15:00 49.3 68.5 39.4 47.1 49.3 5.5 6.3 4.7 183.9 172.6 0.00 0.0632961 52.6 56.8
2021-10-21 08:20:00 49.7 68.8 39.9 49.0 49.7 3.5 5.8 4.6 181.7 174.5 0.00 0.0679199 52.8 56.8
2021-10-21 08:25:00 50.2 67.9 40.0 50.2 50.2 4.4 5.5 4.7 185.1 176.4 0.00 0.0725490 52.9 56.8
2021-10-21 08:30:00 51.0 67.6 40.6 51.0 51.0 5.6 7.2 5.6 174.2 176.5 0.00 0.0774033 53.1 56.7
2021-10-21 08:35:00 51.6 67.4 41.2 51.6 51.6 6.3 9.2 7.3 153.1 175.7 0.00 0.0824531 53.3 56.8
2021-10-21 08:40:00 51.7 67.3 41.2 51.7 51.7 7.4 9.9 7.9 178.5 179.6 0.00 0.0871154 53.6 56.8
2021-10-21 08:45:00 52.1 66.7 41.3 52.1 52.1 9.4 10.5 8.0 159.6 175.7 0.00 0.0919820 53.8 56.8
2021-10-21 08:50:00 52.2 66.4 41.4 52.2 52.2 9.4 12.1 8.9 198.6 182.7 0.00 0.0967369 54.1 56.8
2021-10-21 08:55:00 52.4 66.2 41.5 52.4 52.4 8.8 11.0 8.5 172.5 178.7 0.00 0.0956812 54.3 56.8
2021-10-21 09:00:00 53.0 64.8 41.4 53.0 53.0 9.6 11.2 8.4 173.4 179.1 0.00 0.1064127 54.6 56.9
2021-10-21 09:05:00 52.8 65.1 41.4 52.8 52.8 7.2 11.3 9.0 174.0 175.3 0.00 0.1110960 54.9 56.9
2021-10-21 09:10:00 53.5 64.3 41.7 53.5 53.5 7.4 9.7 8.0 178.6 178.3 0.00 0.1157272 55.2 57.0
2021-10-21 09:15:00 54.8 63.0 42.4 54.8 54.8 9.7 9.7 7.3 166.3 181.1 0.00 0.1204075 55.6 57.0
2021-10-21 09:20:00 55.4 61.9 42.5 55.4 55.4 9.6 11.2 8.1 192.5 184.2 0.00 0.1247431 55.9 57.1
2021-10-21 09:25:00 56.1 61.4 43.0 56.1 56.1 8.0 9.4 7.8 187.6 178.0 0.00 0.1291712 56.2 57.2
2021-10-21 09:30:00 56.2 61.0 43.0 56.2 56.2 6.9 10.6 8.2 187.5 178.9 0.00 0.1335302 56.6 57.3
2021-10-21 09:35:00 57.1 60.3 43.5 57.1 57.1 8.3 11.9 9.1 197.7 197.4 0.00 0.1380515 57.0 57.4
2021-10-21 09:40:00 57.2 59.1 43.0 57.2 57.2 8.0 11.3 8.7 187.7 184.9 0.00 0.1425124 57.4 57.5
2021-10-21 09:45:00 57.5 58.9 43.3 57.5 57.5 7.2 10.3 7.8 187.6 185.7 0.00 0.1466084 57.8 57.6
2021-10-21 09:50:00 57.5 57.4 42.5 57.5 57.5 10.1 10.8 8.1 190.1 197.8 0.00 0.1504492 58.2 57.7
2021-10-21 09:55:00 57.8 57.2 42.8 57.8 57.8 8.3 10.3 8.8 205.1 196.4 0.00 0.1544375 58.7 57.8
2021-10-21 10:00:00 58.7 56.0 43.1 58.7 58.7 9.0 11.2 8.1 181.5 189.3 0.00 0.1588847 59.1 57.9
2021-10-21 10:05:00 59.1 55.1 43.0 59.1 59.1 8.3 10.5 7.6 193.3 182.8 0.00 0.1629611 59.5 58.1
2021-10-21 10:10:00 60.1 54.6 43.7 60.1 60.1 9.4 9.4 7.4 200.7 188.5 0.00 0.1665689 59.9 58.2
2021-10-21 10:15:00 60.0 54.2 43.4 60.0 60.0 7.4 9.6 8.1 185.1 192.0 0.00 0.1700813 60.4 58.3
2021-10-21 10:20:00 60.9 52.9 43.6 60.9 60.9 8.0 10.6 7.2 179.1 186.6 0.00 0.1740917 60.7 58.5
2021-10-21 10:25:00 61.3 52.4 43.7 61.3 61.3 6.5 9.4 7.4 180.7 197.1 0.00 0.1777720 61.1 58.6
2021-10-21 10:30:00 61.3 50.4 42.7 61.3 61.3 10.5 11.3 7.7 201.2 175.3 0.00 0.1806259 61.4 58.7
2021-10-21 10:35:00 61.4 51.8 43.6 61.4 61.4 8.7 11.7 8.3 185.6 183.1 0.00 0.1839584 61.6 58.8
2021-10-21 10:40:00 62.1 51.1 43.8 62.1 62.1 6.7 10.1 7.5 186.9 176.2 0.00 0.1869523 62.0 58.9
2021-10-21 10:45:00 62.9 47.0 42.3 62.9 62.9 8.1 10.6 7.9 199.9 203.0 0.00 0.1899880 62.4 59.1
2021-10-21 10:50:00 63.0 46.1 42.0 63.0 63.0 10.8 10.8 8.2 196.4 199.7 0.00 0.1937749 62.8 59.2
2021-10-21 10:55:00 63.8 45.3 42.2 63.8 63.8 11.2 11.2 7.2 217.7 188.9 0.00 0.1966967 63.3 59.4
2021-10-21 11:00:00 64.3 44.1 42.0 64.3 64.3 8.7 9.9 7.7 218.6 202.2 0.00 0.1992962 63.8 59.5
2021-10-21 11:05:00 64.5 45.1 42.7 64.5 64.5 6.3 12.1 8.8 226.7 212.0 0.00 0.2016649 64.3 59.7
2021-10-21 11:10:00 64.5 44.0 42.1 64.5 64.5 5.5 11.2 8.0 236.8 197.6 0.00 0.2049819 64.8 59.9
2021-10-21 11:15:00 65.5 43.0 42.4 65.5 65.5 8.8 10.3 7.1 227.6 210.6 0.00 0.2066541 65.2 60.1
2021-10-21 11:20:00 65.9 41.6 41.9 65.9 65.9 7.6 8.5 7.2 189.3 207.1 0.00 0.2093966 65.8 60.3
2021-10-21 11:25:00 66.6 38.5 40.5 66.6 66.6 8.1 10.3 7.6 222.0 205.2 0.00 0.2117224 66.2 60.5
2021-10-21 11:30:00 66.7 39.0 40.9 66.7 66.7 6.0 10.1 7.5 186.1 220.7 0.00 0.2137864 66.7 60.7
2021-10-21 11:35:00 67.2 38.2 40.8 67.2 67.2 7.1 10.3 6.4 219.7 212.7 0.00 0.2155561 67.2 60.9
2021-10-21 11:40:00 67.5 38.6 41.4 67.5 67.5 6.2 10.1 7.5 247.5 206.1 0.00 0.2165988 67.7 61.1
2021-10-21 11:45:00 68.3 36.2 40.4 68.3 68.3 9.0 11.2 7.4 219.9 207.0 0.00 0.2190447 68.2 61.3
2021-10-21 11:50:00 68.8 34.6 39.8 68.8 68.8 8.7 10.3 7.2 222.4 197.1 0.00 0.2197925 68.7 61.5
2021-10-21 11:55:00 69.1 35.1 40.4 69.1 69.1 6.3 11.3 7.0 182.7 207.2 0.00 0.2212429 69.2 61.7
2021-10-21 12:00:00 69.7 34.5 40.5 69.7 69.7 8.0 8.8 7.1 191.9 207.1 0.00 0.2219536 69.7 62.0
2021-10-21 12:05:00 69.7 33.2 39.4 69.7 69.7 6.9 10.5 6.5 153.6 196.7 0.00 0.2233926 70.1 62.2
2021-10-21 12:10:00 70.4 28.2 36.0 70.4 70.4 10.3 13.1 8.6 196.7 196.1 0.00 0.2246047 70.6 62.4
2021-10-21 12:15:00 70.3 29.9 37.3 70.3 70.3 5.5 10.6 7.2 219.5 213.7 0.00 0.2254513 71.0 62.6
2021-10-21 12:20:00 71.0 29.5 37.6 71.0 71.0 8.7 9.7 7.5 223.9 192.7 0.00 0.2262573 71.5 62.8
2021-10-21 12:25:00 71.3 29.3 37.7 71.3 71.3 7.1 9.7 6.7 191.1 188.4 0.00 0.2251730 71.9 63.0
2021-10-21 12:30:00 71.5 27.8 36.5 71.5 71.5 6.7 11.5 8.2 196.4 186.1 0.00 0.2258753 72.3 63.2
2021-10-21 12:35:00 71.7 25.1 34.1 71.7 71.7 5.1 12.1 7.8 192.8 203.4 0.00 0.2271427 72.7 63.4
2021-10-21 12:40:00 71.6 26.2 35.1 71.6 71.6 7.1 10.6 6.6 160.1 195.3 0.00 0.2260982 73.1 63.6
2021-10-21 12:45:00 72.6 23.2 32.9 72.6 72.6 9.7 12.6 6.5 274.5 213.2 0.00 0.2265975 73.5 63.8
2021-10-21 12:50:00 72.1 24.2 33.6 72.1 72.1 6.3 13.5 9.1 237.2 218.3 0.00 0.2270297 73.9 64.0
2021-10-21 12:55:00 72.6 23.6 33.3 72.6 72.6 5.8 10.1 6.5 204.6 235.3 0.00 0.2267743 74.3 64.1
2021-10-21 13:00:00 72.5 24.1 33.8 72.5 72.5 8.7 11.2 7.9 213.0 216.0 0.00 0.2252622 74.6 64.3
2021-10-21 13:05:00 72.7 22.8 32.5 72.7 72.7 4.9 10.6 8.0 248.9 218.1 0.00 0.2246369 75.0 64.5
2021-10-21 13:10:00 73.1 23.8 33.9 73.1 73.1 7.8 10.6 6.1 221.8 248.6 0.00 0.2238823 75.3 64.7
2021-10-21 13:15:00 74.0 22.0 32.8 74.0 74.0 6.0 11.0 7.6 265.3 232.5 0.00 0.2224762 75.6 64.9
2021-10-21 13:20:00 74.0 22.5 33.3 74.0 74.0 8.5 12.4 8.9 205.5 207.0 0.00 0.2213552 76.0 65.0
2021-10-21 13:25:00 74.3 20.9 31.7 74.3 74.3 9.0 10.3 5.8 218.5 205.3 0.00 0.2203473 76.2 65.2
2021-10-21 13:30:00 73.8 21.3 31.8 73.8 73.8 6.7 14.4 9.1 186.4 220.8 0.00 0.2194882 76.5 65.4
2021-10-21 13:35:00 74.5 20.0 30.8 74.5 74.5 10.1 13.7 8.8 214.5 221.6 0.00 0.2177286 76.8 65.6
2021-10-21 13:40:00 74.3 20.3 31.0 74.3 74.3 7.8 11.3 7.3 249.9 227.7 0.00 0.2170487 77.1 65.8
2021-10-21 13:45:00 74.9 19.9 30.9 74.9 74.9 8.5 14.4 10.9 195.1 217.1 0.00 0.2150458 77.3 66.0
2021-10-21 13:50:00 75.1 19.6 30.8 75.1 75.1 5.5 14.7 9.4 217.9 219.2 0.00 0.2131365 77.6 66.2
2021-10-21 13:55:00 75.4 18.8 30.0 75.4 75.4 12.8 16.7 11.6 236.7 216.4 0.00 0.2114567 77.8 66.4
2021-10-21 14:00:00 75.4 18.5 29.7 75.4 75.4 9.4 13.0 9.0 246.0 235.6 0.00 0.2088779 78.0 66.5
2021-10-21 14:05:00 75.0 18.7 29.6 75.0 75.0 7.1 13.9 9.1 182.6 229.3 0.00 0.2069896 78.2 66.7
2021-10-21 14:10:00 76.4 17.5 29.0 76.4 76.4 11.2 13.9 9.7 227.8 220.7 0.00 0.2047423 78.4 66.9
2021-10-21 14:15:00 76.2 18.4 30.2 76.2 76.2 7.4 15.1 11.1 189.8 215.6 0.00 0.2025774 78.5 67.0
2021-10-21 14:20:00 76.0 18.2 29.7 76.0 76.0 8.1 14.4 9.3 242.1 225.7 0.00 0.1983522 78.7 67.2
2021-10-21 14:25:00 77.0 18.0 30.2 77.0 77.0 9.7 13.5 9.5 259.8 238.7 0.00 0.1961409 78.8 67.3
2021-10-21 14:30:00 76.8 16.3 27.6 76.8 76.8 11.9 16.4 12.3 212.2 232.8 0.00 0.1933028 78.9 67.5
2021-10-21 14:35:00 77.1 14.9 25.8 77.1 77.1 13.1 14.0 11.2 237.0 228.2 0.00 0.1900931 79.0 67.7
2021-10-21 14:40:00 77.0 15.4 26.4 77.0 77.0 10.6 16.0 10.8 236.2 250.9 0.00 0.1874283 79.1 67.8
2021-10-21 14:45:00 77.3 14.0 24.4 77.3 77.3 10.6 16.2 13.1 234.0 223.4 0.00 0.1841676 79.2 67.9
2021-10-21 14:50:00 77.1 15.0 25.8 77.1 77.1 8.3 13.3 9.7 235.4 228.0 0.00 0.1806042 79.3 68.1
2021-10-21 14:55:00 77.5 14.5 25.4 77.5 77.5 6.7 12.2 10.1 208.2 238.1 0.00 0.1775486 79.3 68.2
2021-10-21 15:00:00 77.5 12.6 22.1 77.5 77.5 10.3 16.5 12.8 250.8 246.4 0.00 0.1741768 79.4 68.3
2021-10-21 15:05:00 77.5 12.7 22.2 77.5 77.5 13.0 14.7 11.0 224.1 252.4 0.00 0.1701190 79.4 68.4
2021-10-21 15:10:00 77.5 12.7 22.2 77.5 77.5 13.9 13.9 10.8 212.1 216.6 0.00 0.1658663 79.4 68.5
2021-10-21 15:15:00 78.1 11.4 20.0 78.1 78.1 14.6 17.2 10.7 220.1 218.5 0.00 0.1624648 79.4 68.6
2021-10-21 15:20:00 78.1 11.1 19.6 78.1 78.1 11.0 13.5 10.4 258.2 245.8 0.00 0.1578533 79.4 68.7
2021-10-21 15:25:00 77.9 11.5 20.1 77.9 77.9 9.0 11.9 9.6 236.2 253.4 0.00 0.1541382 79.5 68.8
2021-10-21 15:30:00 78.1 11.7 20.7 78.1 78.1 10.6 14.0 10.4 256.5 255.1 0.00 0.1497377 79.4 68.9
2021-10-21 15:35:00 78.0 11.2 19.7 78.0 78.0 10.8 14.9 11.6 223.2 237.6 0.00 0.1458770 79.4 69.0
2021-10-21 15:40:00 77.9 11.0 19.2 77.9 77.9 10.3 14.2 10.3 224.3 228.0 0.00 0.1412637 79.4 69.0
2021-10-21 15:45:00 77.8 11.4 19.9 77.8 77.8 10.1 12.4 9.6 217.7 218.8 0.00 0.1366358 79.4 69.1
2021-10-21 15:50:00 78.4 11.3 20.2 78.4 78.4 7.2 10.5 8.6 222.6 217.6 0.00 0.1319549 79.3 69.2
2021-10-21 15:55:00 78.4 10.9 19.3 78.4 78.4 12.1 12.1 9.6 230.3 222.7 0.00 0.1277746 79.2 69.2
2021-10-21 16:00:00 78.0 11.4 20.1 78.0 78.0 11.2 18.5 12.9 255.7 236.3 0.00 0.1233645 79.2 69.2
2021-10-21 16:05:00 77.6 11.9 20.7 77.6 77.6 12.4 14.7 12.1 238.8 239.3 0.00 0.1187354 79.1 69.3
2021-10-21 16:10:00 77.6 11.5 20.0 77.6 77.6 8.0 15.5 10.5 240.1 243.1 0.00 0.1139291 79.0 69.4
2021-10-21 16:15:00 77.6 11.9 20.7 77.6 77.6 7.6 12.4 8.9 275.8 253.8 0.00 0.1091368 78.9 69.4
2021-10-21 16:20:00 77.8 11.6 20.3 77.8 77.8 12.1 13.1 9.5 249.9 259.2 0.00 0.1043754 78.7 69.4
2021-10-21 16:25:00 77.7 12.1 21.3 77.7 77.7 8.0 10.6 7.7 216.3 224.1 0.00 0.0995794 78.6 69.4
2021-10-21 16:30:00 77.9 11.8 20.8 77.9 77.9 8.3 12.2 8.1 211.8 233.6 0.00 0.0951014 78.5 69.5
2021-10-21 16:35:00 77.8 11.9 20.9 77.8 77.8 9.0 12.1 9.3 229.0 223.5 0.00 0.0903922 78.3 69.5
2021-10-21 16:40:00 77.6 12.0 20.8 77.6 77.6 8.7 10.5 8.5 240.6 228.5 0.00 0.0859712 78.2 69.5
2021-10-21 16:45:00 77.2 11.9 20.4 77.2 77.2 4.6 9.4 5.8 278.2 228.6 0.00 0.0738984 78.0 69.5
2021-10-21 16:50:00 77.0 12.6 21.6 77.0 77.0 6.7 8.8 6.0 246.2 252.8 0.00 0.0666643 77.8 69.5
2021-10-21 16:55:00 77.1 11.9 20.3 77.1 77.1 7.6 9.0 6.8 224.1 220.9 0.00 0.0683759 77.6 69.5
2021-10-21 17:00:00 77.2 12.0 20.6 77.2 77.2 5.8 7.6 5.1 221.6 204.9 0.00 0.0652256 77.5 69.5
2021-10-21 17:05:00 76.8 12.2 20.7 76.8 76.8 9.2 12.2 6.9 195.4 209.0 0.00 0.0615755 77.2 69.5
2021-10-21 17:10:00 76.3 12.4 20.7 76.3 76.3 8.1 9.6 7.7 210.5 192.6 0.00 0.0569355 77.0 69.5
2021-10-21 17:15:00 76.0 12.2 20.2 76.0 76.0 5.8 7.6 5.7 193.4 192.6 0.00 0.0465373 76.7 69.5
2021-10-21 17:20:00 75.8 12.5 20.5 75.8 75.8 5.5 6.0 5.0 174.0 198.9 0.00 0.0426466 76.5 69.4
2021-10-21 17:25:00 75.6 12.9 21.0 75.6 75.6 3.7 5.6 3.6 201.0 191.3 0.00 0.0397707 76.2 69.4
2021-10-21 17:30:00 75.1 13.4 21.6 75.1 75.1 4.4 5.6 4.4 199.5 195.5 0.00 0.0388172 75.9 69.4
2021-10-21 17:35:00 74.4 13.8 21.7 74.4 74.4 4.7 5.5 4.6 206.7 191.8 0.00 0.0348762 75.7 69.4
2021-10-21 17:40:00 73.9 13.9 21.5 73.9 73.9 4.0 5.6 4.4 183.1 189.1 0.00 0.0300718 75.3 69.3
2021-10-21 17:45:00 73.2 14.2 21.4 73.2 73.2 3.5 4.6 3.9 176.6 184.3 0.00 0.0252354 75.0 69.3
2021-10-21 17:50:00 72.7 14.7 21.9 72.7 72.7 2.6 4.0 3.3 152.2 171.7 0.00 0.0205588 74.8 69.2
2021-10-21 17:55:00 71.7 15.6 22.4 71.7 71.7 2.8 3.3 2.9 151.3 170.6 0.00 0.0156454 74.4 69.2
2021-10-21 18:00:00 70.8 16.2 22.6 70.8 70.8 2.2 3.3 2.8 156.6 162.5 0.00 0.0113115 74.1 69.2
2021-10-21 18:05:00 69.8 16.8 22.7 69.8 69.8 2.6 3.0 2.7 158.9 155.8 0.00 0.0072542 73.7 69.1
2021-10-21 18:10:00 68.8 17.5 22.9 68.8 68.8 2.8 3.0 2.5 149.1 153.4 0.00 0.0016776 73.4 69.1
2021-10-21 18:15:00 68.5 17.6 22.7 68.5 68.5 2.8 3.3 2.9 139.9 148.9 0.00 0.0000000 73.0 69.0
2021-10-21 18:20:00 68.5 18.2 23.5 68.5 68.5 3.3 3.8 3.3 147.8 147.8 0.00 0.0000000 72.6 69.0
2021-10-21 18:25:00 67.8 18.8 23.8 67.8 67.8 3.3 3.5 3.1 152.1 150.3 0.00 0.0000000 72.2 68.9
2021-10-21 18:30:00 66.9 20.0 24.5 66.9 66.9 2.6 3.5 3.1 156.6 151.7 0.00 0.0008244 71.9 68.8
2021-10-21 18:35:00 65.8 20.4 24.1 65.8 65.8 2.4 2.6 2.3 156.9 159.5 0.00 0.0078805 71.5 68.7
2021-10-21 18:40:00 64.9 20.7 23.6 64.9 64.9 1.9 2.8 2.3 164.6 160.5 0.00 0.0098934 71.1 68.6
2021-10-21 18:45:00 64.2 21.0 23.4 64.2 64.2 1.3 2.1 1.6 152.6 151.0 0.00 0.0000048 70.7 68.5
2021-10-21 18:50:00 64.0 20.6 22.8 64.0 64.0 2.2 2.2 1.7 145.1 144.5 0.00 0.0000000 70.4 68.5
2021-10-21 18:55:00 63.9 20.6 22.8 63.9 63.9 2.1 2.4 2.0 140.2 144.0 0.00 0.0000000 70.0 68.4
2021-10-21 19:00:00 63.8 20.1 22.0 63.8 63.8 1.7 2.1 1.6 83.3 109.3 0.00 0.0000000 69.7 68.3
2021-10-21 19:05:00 64.1 21.1 23.5 64.1 64.1 1.7 2.6 1.9 88.5 81.3 0.00 0.0000000 69.3 68.2
2021-10-21 19:10:00 64.1 21.1 23.5 64.1 64.1 2.8 2.8 2.2 48.1 68.0 0.00 0.0000000 69.0 68.1
2021-10-21 19:15:00 62.7 22.1 23.4 62.7 62.7 1.3 3.0 2.3 46.5 49.6 0.00 0.0000000 68.6 68.0
2021-10-21 19:20:00 61.3 25.1 25.3 61.3 61.3 0.0 1.3 0.2 48.9 48.5 0.00 0.0000000 68.3 67.9
2021-10-21 19:25:00 59.0 25.6 23.7 59.0 59.0 0.0 0.0 0.0 43.5 44.8 0.00 0.0000000 68.0 67.8
2021-10-21 19:30:00 58.2 24.8 22.4 58.2 58.2 0.0 0.0 0.0 50.9 47.9 0.00 0.0000000 67.7 67.7
2021-10-21 19:35:00 58.2 24.1 21.6 58.2 58.2 0.0 0.0 0.0 78.4 66.4 0.00 0.0000000 67.4 67.6
2021-10-21 19:40:00 59.8 22.0 20.8 59.8 59.8 0.0 0.0 0.0 96.6 87.9 0.00 0.0000000 67.1 67.4
2021-10-21 19:45:00 61.6 20.6 20.8 61.6 61.6 0.0 0.0 0.0 78.3 82.6 0.00 0.0000000 66.9 67.3
2021-10-21 19:50:00 62.3 21.1 21.9 62.3 62.3 0.0 0.0 0.0 66.6 79.8 0.00 0.0000000 66.6 67.2
2021-10-21 19:55:00 62.2 20.6 21.3 62.2 62.2 0.0 0.0 0.0 67.1 70.4 0.00 0.0000000 66.3 67.1
2021-10-21 20:00:00 62.7 20.2 21.3 62.7 62.7 0.0 0.0 0.0 65.4 71.9 0.00 0.0000000 66.1 67.0
2021-10-21 20:05:00 62.7 20.1 21.1 62.7 62.7 0.0 0.0 0.0 72.9 69.8 0.00 0.0000000 65.8 66.9
2021-10-21 20:10:00 63.2 20.0 21.4 63.2 63.2 0.0 0.0 0.0 45.0 62.6 0.00 0.0000000 65.6 66.8
2021-10-21 20:15:00 62.7 20.1 21.1 62.7 62.7 1.9 2.1 1.5 56.9 50.7 0.00 0.0000000 65.4 66.7
2021-10-21 20:20:00 62.5 20.8 21.8 62.5 62.5 2.1 2.4 2.1 40.3 47.0 0.00 0.0000000 65.2 66.6
2021-10-21 20:25:00 60.0 23.2 22.3 60.0 60.0 2.6 2.8 2.4 34.1 32.3 0.00 0.0000000 65.0 66.4
2021-10-21 20:30:00 59.9 23.3 22.2 59.9 59.9 3.1 5.1 3.8 8.1 9.5 0.00 0.0000000 64.8 66.4
2021-10-21 20:35:00 62.7 19.6 20.6 62.7 62.7 4.7 6.7 5.1 1.7 14.8 0.00 0.0000000 64.7 66.3
2021-10-21 20:40:00 62.9 20.1 21.3 62.9 62.9 3.7 5.8 4.5 4.7 5.1 0.00 0.0000000 64.5 66.1
2021-10-21 20:45:00 62.7 20.4 21.5 62.7 62.7 3.5 4.9 3.8 3.0 0.6 0.00 0.0000000 64.3 66.1
2021-10-21 20:50:00 62.5 20.7 21.6 62.5 62.5 3.3 4.2 3.6 1.2 4.9 0.00 0.0000000 64.3 66.0
2021-10-21 20:55:00 60.7 23.0 22.6 60.7 60.7 4.0 4.2 3.8 348.3 355.3 0.00 0.0000000 64.1 65.9
2021-10-21 21:00:00 59.4 24.6 23.2 59.4 59.4 3.7 4.7 4.2 350.1 351.5 0.00 0.0000000 64.0 65.8
2021-10-21 21:05:00 59.3 25.1 23.5 59.3 59.3 4.2 4.7 4.2 344.9 350.6 0.00 0.0000000 64.0 65.7
2021-10-21 21:10:00 59.0 25.6 23.8 59.0 59.0 4.0 4.4 4.0 0.1 357.1 0.00 0.0000000 63.8 65.6
2021-10-21 21:15:00 59.4 25.8 24.2 59.4 59.4 3.3 4.6 4.0 22.4 5.1 0.00 0.0000000 63.8 65.5
2021-10-21 21:20:00 59.5 27.0 25.4 59.5 59.5 3.7 4.6 3.8 5.7 359.6 0.00 0.0000000 63.6 65.5
2021-10-21 21:25:00 60.7 26.6 26.1 60.7 60.7 3.8 4.9 3.8 23.9 28.1 0.00 0.0000000 63.6 65.4
2021-10-21 21:30:00 61.3 25.7 25.8 61.3 61.3 3.5 5.5 4.4 35.2 25.6 0.00 0.0000000 63.4 65.3
2021-10-21 21:35:00 61.3 25.8 25.9 61.3 61.3 4.0 6.2 4.5 37.8 31.1 0.00 0.0000000 63.4 65.3
2021-10-21 21:40:00 60.4 26.8 26.1 60.4 60.4 4.6 5.3 4.5 60.3 39.6 0.00 0.0000000 63.3 65.2
2021-10-21 21:45:00 59.8 27.3 26.0 59.8 59.8 5.1 6.2 4.8 38.7 42.9 0.00 0.0000000 63.2 65.1
2021-10-21 21:50:00 58.5 27.7 25.3 58.5 58.5 5.5 6.9 5.0 55.3 45.5 0.00 0.0000000 63.1 65.0
2021-10-21 21:55:00 57.3 29.9 26.1 57.3 57.3 3.3 5.5 4.3 71.4 57.6 0.00 0.0000000 63.0 65.0
2021-10-21 22:00:00 56.7 32.6 27.7 56.7 56.7 4.9 4.9 3.1 97.0 82.0 0.00 0.0000000 62.9 64.9
2021-10-21 22:05:00 56.9 34.1 28.8 56.9 56.9 3.0 4.9 3.8 129.0 109.8 0.00 0.0000000 62.8 64.9
2021-10-21 22:10:00 56.5 36.3 30.1 56.5 56.5 3.3 4.6 3.7 129.4 119.7 0.00 0.0000000 62.7 64.8
2021-10-21 22:15:00 56.2 42.5 33.7 56.2 56.2 4.4 5.1 3.8 127.9 132.6 0.00 0.0000000 62.5 64.7
2021-10-21 22:20:00 57.6 46.3 37.1 57.6 57.6 3.8 5.8 4.6 147.4 142.3 0.00 0.0000000 62.4 64.7
2021-10-21 22:25:00 57.6 45.7 36.8 57.6 57.6 4.6 5.3 4.2 149.1 149.7 0.00 0.0000000 62.3 64.6
2021-10-21 22:30:00 56.7 46.7 36.5 56.7 56.7 3.3 4.7 3.8 154.7 150.1 0.00 0.0000000 62.1 64.5
2021-10-21 22:35:00 56.0 48.9 37.0 56.0 56.0 3.1 4.0 3.3 149.7 149.8 0.00 0.0000000 62.0 64.5
2021-10-21 22:40:00 55.6 50.9 37.7 55.6 55.6 2.8 3.7 3.0 148.4 148.9 0.00 0.0000000 61.9 64.4
2021-10-21 22:45:00 55.3 53.1 38.5 55.3 55.3 3.0 3.7 3.1 133.1 145.1 0.00 0.0000000 61.8 64.3
2021-10-21 22:50:00 55.0 54.1 38.7 55.0 55.0 3.7 4.0 3.4 142.9 146.6 0.00 0.0000000 61.6 64.3
2021-10-21 22:55:00 54.7 54.7 38.7 54.7 54.7 4.2 4.2 3.6 137.4 148.9 0.00 0.0000000 61.5 64.2
2021-10-21 23:00:00 54.7 56.5 39.6 54.7 54.7 3.3 5.3 4.1 162.3 163.4 0.00 0.0000000 61.4 64.1
2021-10-21 23:05:00 54.8 59.2 40.9 54.8 54.8 3.3 5.1 4.0 154.8 160.3 0.00 0.0000000 61.3 64.1
2021-10-21 23:10:00 54.7 59.4 40.9 54.7 54.7 2.2 4.0 2.8 163.4 164.7 0.00 0.0000000 61.2 64.0
2021-10-21 23:15:00 54.6 62.3 42.0 54.6 54.6 3.0 3.7 3.1 171.4 169.7 0.00 0.0000000 61.1 63.9
2021-10-21 23:20:00 54.4 65.4 43.0 54.4 54.4 4.0 4.7 3.5 176.4 169.2 0.00 0.0000000 61.0 63.9
2021-10-21 23:25:00 54.3 65.9 43.1 54.3 54.3 4.0 4.2 3.6 168.8 175.0 0.00 0.0000000 60.9 63.8
2021-10-21 23:30:00 54.2 65.9 43.1 54.2 54.2 3.7 4.9 3.6 184.2 183.5 0.00 0.0000000 60.8 63.7
2021-10-21 23:35:00 54.4 68.5 44.2 54.4 54.4 4.7 5.3 3.9 179.7 189.7 0.00 0.0000000 60.7 63.7
2021-10-21 23:40:00 54.9 68.6 44.7 54.9 54.9 4.7 5.6 4.5 183.2 184.3 0.00 0.0000000 60.6 63.6
2021-10-21 23:45:00 55.1 71.0 45.9 55.1 55.1 5.3 7.4 5.4 166.4 175.1 0.00 0.0000000 60.5 63.5
2021-10-21 23:50:00 55.8 71.5 46.8 55.8 55.8 6.2 7.4 6.3 148.7 170.0 0.00 0.0000000 60.5 63.5
2021-10-21 23:55:00 56.4 73.5 48.0 56.4 56.4 7.4 9.9 7.2 173.3 175.0 0.00 0.0000000 60.4 63.4
2021-10-22 00:00:00 56.8 74.3 48.7 56.8 56.8 8.3 9.4 7.3 167.7 175.8 0.00 0.0000000 60.4 63.3
2021-10-22 00:05:00 57.3 74.8 49.4 57.3 57.3 7.1 12.1 8.1 186.8 180.4 0.00 0.0000000 60.3 63.3
2021-10-22 00:10:00 57.1 74.4 49.0 57.1 57.1 6.0 8.1 7.0 185.6 182.7 0.00 0.0000000 60.3 63.2
2021-10-22 00:15:00 56.6 76.0 49.1 56.6 56.6 8.0 8.8 7.3 169.4 179.7 0.00 0.0000000 60.3 63.2
2021-10-22 00:20:00 56.5 77.0 49.4 56.5 56.5 6.3 10.1 7.4 165.4 179.4 0.00 0.0000000 60.3 63.1
2021-10-22 00:25:00 56.6 78.0 49.8 56.6 56.6 7.2 10.1 7.9 176.5 177.0 0.00 0.0000000 60.2 63.1
2021-10-22 00:30:00 56.6 78.0 49.8 56.6 56.6 7.6 8.8 7.6 174.0 178.8 0.00 0.0000000 60.2 63.0
2021-10-22 00:35:00 56.3 77.6 49.4 56.3 56.3 8.1 9.2 8.0 183.7 181.9 0.00 0.0000000 60.2 63.0
2021-10-22 00:40:00 56.0 78.1 49.3 56.0 56.0 6.9 8.8 7.3 193.3 188.1 0.00 0.0000000 60.2 62.9
2021-10-22 00:45:00 56.3 76.3 49.0 56.3 56.3 7.2 9.0 7.2 211.4 196.3 0.00 0.0000000 60.2 62.9
2021-10-22 00:50:00 56.6 74.6 48.6 56.6 56.6 6.2 8.3 7.1 185.7 196.7 0.00 0.0000000 60.2 62.9
2021-10-22 00:55:00 56.3 74.5 48.3 56.3 56.3 7.8 8.1 7.0 177.4 189.8 0.00 0.0000000 60.1 62.8
2021-10-22 01:00:00 55.9 74.9 48.0 55.9 55.9 6.0 7.4 5.9 205.2 193.7 0.00 0.0000000 60.1 62.8
2021-10-22 01:05:00 55.7 75.4 48.0 55.7 55.7 5.5 6.5 5.5 196.6 198.3 0.00 0.0000000 60.1 62.7
2021-10-22 01:10:00 55.1 75.7 47.6 55.1 55.1 5.5 6.2 5.2 191.7 211.3 0.00 0.0000000 60.0 62.7
2021-10-22 01:15:00 54.9 76.1 47.5 54.9 54.9 5.1 5.8 5.0 202.4 198.9 0.00 0.0000000 60.0 62.7
2021-10-22 01:20:00 54.9 76.2 47.5 54.9 54.9 5.3 6.7 5.2 200.1 197.9 0.00 0.0000000 60.0 62.6
2021-10-22 01:25:00 55.1 76.1 47.7 55.1 55.1 5.8 7.2 5.8 188.1 204.2 0.00 0.0000000 59.9 62.6
2021-10-22 01:30:00 55.7 76.7 48.5 55.7 55.7 6.3 7.2 6.2 199.9 204.2 0.00 0.0000000 59.9 62.6
2021-10-22 01:35:00 56.0 77.4 49.0 56.0 56.0 5.6 7.1 6.3 193.6 194.3 0.00 0.0000000 59.8 62.5
2021-10-22 01:40:00 56.1 77.6 49.2 56.1 56.1 6.7 6.9 6.1 210.9 205.4 0.00 0.0000000 59.7 62.5
2021-10-22 01:45:00 56.1 78.0 49.3 56.1 56.1 6.7 7.8 6.7 203.9 201.3 0.00 0.0000000 59.7 62.5
2021-10-22 01:50:00 55.7 78.0 49.0 55.7 55.7 5.1 7.2 5.8 195.1 205.4 0.00 0.0000000 59.7 62.4
2021-10-22 01:55:00 55.1 79.3 48.8 55.1 55.1 5.1 6.3 5.5 198.5 202.8 0.00 0.0000000 59.6 62.4
2021-10-22 02:00:00 54.6 79.9 48.5 54.6 54.6 5.3 6.5 5.7 222.4 202.3 0.00 0.0000000 59.6 62.3
2021-10-22 02:05:00 54.4 80.4 48.5 54.4 54.4 5.5 7.1 5.8 201.8 202.5 0.00 0.0000000 59.6 62.3
2021-10-22 02:10:00 54.1 80.9 48.4 54.1 54.1 5.6 6.5 5.7 202.8 195.5 0.00 0.0000000 59.5 62.3
2021-10-22 02:15:00 54.4 80.6 48.5 54.4 54.4 5.5 7.2 6.1 207.7 197.1 0.00 0.0000000 59.5 62.2
2021-10-22 02:20:00 54.6 80.2 48.6 54.6 54.6 5.8 7.4 6.3 201.4 204.9 0.00 0.0000000 59.4 62.2
2021-10-22 02:25:00 54.4 80.4 48.5 54.4 54.4 5.3 6.5 5.6 180.3 198.5 0.00 0.0000000 59.3 62.2
2021-10-22 02:30:00 53.9 81.0 48.3 53.9 53.9 5.6 6.7 5.5 204.3 195.7 0.00 0.0000000 59.3 62.1
2021-10-22 02:35:00 53.5 82.0 48.1 53.5 53.5 6.0 6.7 5.7 231.8 223.6 0.00 0.0000000 59.3 62.1
2021-10-22 02:40:00 53.6 81.7 48.1 53.6 53.6 7.8 7.8 5.9 222.1 224.4 0.00 0.0000000 59.2 62.0
2021-10-22 02:45:00 54.0 79.7 47.9 54.0 54.0 5.8 7.4 6.4 223.9 223.3 0.00 0.0000000 59.1 62.0
2021-10-22 02:50:00 54.5 78.6 48.0 54.5 54.5 5.5 7.2 6.3 204.4 217.4 0.00 0.0000000 59.1 62.0
2021-10-22 02:55:00 54.1 78.7 47.6 54.1 54.1 5.1 6.3 5.6 205.8 212.4 0.00 0.0000000 59.1 62.0
2021-10-22 03:00:00 53.6 79.2 47.3 53.6 53.6 4.9 5.8 4.9 209.2 213.6 0.00 0.0000000 59.0 61.9
2021-10-22 03:05:00 53.0 80.3 47.1 53.0 53.0 3.5 4.9 4.2 182.0 197.5 0.00 0.0000000 59.0 61.9
2021-10-22 03:10:00 52.3 81.1 46.7 52.3 52.3 3.8 4.2 3.7 195.7 189.3 0.00 0.0000000 58.9 61.8
2021-10-22 03:15:00 51.8 82.3 46.6 51.8 51.8 4.4 4.6 3.6 216.2 213.0 0.00 0.0000000 58.9 61.8
2021-10-22 03:20:00 51.3 82.4 46.1 51.3 51.3 3.3 4.6 3.6 210.4 213.0 0.00 0.0000000 58.8 61.8
2021-10-22 03:25:00 50.7 84.3 46.1 50.7 50.7 3.1 3.7 3.1 216.0 206.2 0.00 0.0000000 58.7 61.7
2021-10-22 03:30:00 50.3 85.2 46.0 50.3 50.3 4.2 4.2 3.6 208.1 222.4 0.00 0.0000000 58.7 61.7
2021-10-22 03:35:00 50.2 85.5 46.0 50.2 50.2 4.0 4.7 4.1 222.1 214.8 0.00 0.0000000 58.6 61.6
2021-10-22 03:40:00 50.8 86.1 46.8 50.8 50.8 3.8 5.1 4.4 218.1 213.6 0.00 0.0000000 58.5 61.6
2021-10-22 03:45:00 51.2 85.4 47.0 51.2 51.2 4.6 4.6 3.9 203.8 200.7 0.00 0.0000000 58.4 61.6
2021-10-22 03:50:00 51.6 85.4 47.4 51.6 51.6 4.9 5.1 4.2 181.6 185.0 0.00 0.0000000 58.4 61.5
2021-10-22 03:55:00 52.1 85.7 47.9 52.1 52.1 4.4 5.6 4.4 176.2 189.1 0.00 0.0001900 58.3 61.5
2021-10-22 04:00:00 53.1 84.5 48.5 53.1 53.1 4.2 5.6 4.5 206.1 198.8 0.00 0.0003345 58.2 61.4
2021-10-22 04:05:00 53.6 83.1 48.6 53.6 53.6 4.9 5.3 4.0 177.2 189.3 0.00 0.0002971 58.2 61.4
2021-10-22 04:10:00 54.1 82.5 48.9 54.1 54.1 4.0 4.9 4.3 189.2 187.8 0.00 0.0001698 58.2 61.4
2021-10-22 04:15:00 54.2 82.8 49.1 54.2 54.2 3.8 4.6 3.9 205.9 192.8 0.00 0.0000948 58.3 61.3
2021-10-22 04:20:00 54.6 82.5 49.4 54.6 54.6 4.4 5.1 4.1 202.3 196.1 0.00 0.0000282 58.4 61.3
2021-10-22 04:25:00 54.7 82.5 49.5 54.7 54.7 6.0 6.0 4.6 188.5 195.0 0.00 0.0000009 58.4 61.2
2021-10-22 04:30:00 55.2 81.4 49.6 55.2 55.2 4.7 7.1 5.2 197.2 196.6 0.00 0.0000600 58.5 61.2

Data is courtesy of the NM Climate Center. DO NOT USE IN LEGAL PROCEEDINGS.